Time;durP1;ratioP1;P1;durP2;ratioP2;P2;SDS_P1;SDS_P2;PMS_P1;PMS_P2;Temp;Humidity;BMP_temperature;BMP_pressure;BME280_temperature;BME280_humidity;BME280_pressure;Samples;Min_cycle;Max_cycle;Signal;HPM_P1;HPM_P2
2022/03/11 00:01:54;;;;;;;5.40;3.90;;;19.30;50.80;;;;;;5096957;28;20140;-68
2022/03/11 00:04:20;;;;;;;6.35;3.90;;;19.20;50.50;;;;;;5097021;28;20040;-68
2022/03/11 00:06:46;;;;;;;7.82;4.32;;;19.30;50.50;;;;;;5096812;28;20036;-68
2022/03/11 00:09:12;;;;;;;5.88;3.50;;;19.30;50.40;;;;;;5096720;28;20040;-68
2022/03/11 00:11:39;;;;;;;4.75;3.60;;;19.20;50.20;;;;;;5096990;28;20050;-68
2022/03/11 00:14:05;;;;;;;10.20;3.95;;;19.30;50.20;;;;;;5096609;28;20036;-68
2022/03/11 00:16:31;;;;;;;6.85;4.20;;;19.20;50.00;;;;;;5096829;28;20032;-68
2022/03/11 00:18:57;;;;;;;5.45;4.20;;;19.20;49.80;;;;;;5096852;28;20040;-68
2022/03/11 00:21:26;;;;;;;4.57;3.58;;;19.30;49.70;;;;;;5096579;28;20028;-68
2022/03/11 00:23:52;;;;;;;6.28;3.78;;;19.20;49.70;;;;;;5096565;28;20120;-68
2022/03/11 00:26:18;;;;;;;5.82;3.90;;;19.30;49.70;;;;;;5096555;28;20049;-68
2022/03/11 00:28:44;;;;;;;6.57;3.58;;;19.30;49.70;;;;;;5096674;28;20036;-68
2022/03/11 00:31:10;;;;;;;7.03;3.88;;;19.30;49.60;;;;;;5096747;28;20062;-68
2022/03/11 00:33:37;;;;;;;5.80;3.63;;;19.30;49.40;;;;;;5096531;28;20055;-68
2022/03/11 00:36:03;;;;;;;7.47;3.78;;;19.30;49.50;;;;;;5096350;28;20476;-67
2022/03/11 00:38:29;;;;;;;7.22;3.85;;;19.20;49.30;;;;;;5096648;28;20029;-68
2022/03/11 00:40:56;;;;;;;5.28;3.63;;;19.20;49.30;;;;;;5096534;28;20055;-68
2022/03/11 00:43:23;;;;;;;6.22;3.95;;;19.20;49.40;;;;;;5096435;28;20040;-68
2022/03/11 00:45:49;;;;;;;6.35;3.92;;;19.10;49.50;;;;;;5112642;28;20040;-68
2022/03/11 00:48:16;;;;;;;6.32;3.75;;;19.10;49.60;;;;;;5096346;28;20040;-68
2022/03/11 00:50:42;;;;;;;6.97;3.78;;;19.10;49.60;;;;;;5096445;28;20058;-68
2022/03/11 00:53:09;;;;;;;5.30;3.38;;;19.00;49.60;;;;;;5096373;28;20044;-69
2022/03/11 00:55:36;;;;;;;5.80;4.82;;;19.00;49.50;;;;;;5096206;28;20037;-68
2022/03/11 00:58:02;;;;;;;8.02;4.03;;;19.00;49.60;;;;;;5096269;28;20361;-68
2022/03/11 01:00:29;;;;;;;8.23;4.50;;;19.00;49.50;;;;;;5096323;28;20044;-68
2022/03/11 01:02:55;;;;;;;6.35;4.20;;;19.00;49.30;;;;;;5095811;28;20037;-68
2022/03/11 01:05:24;;;;;;;8.38;4.25;;;19.00;49.20;;;;;;5096339;28;20067;-68
2022/03/11 01:07:50;;;;;;;6.15;4.30;;;19.00;49.20;;;;;;5078716;28;20036;-68
2022/03/11 01:10:18;;;;;;;7.80;4.45;;;19.00;49.10;;;;;;5095972;28;20048;-68
2022/03/11 01:12:44;;;;;;;5.20;3.60;;;19.00;49.10;;;;;;5096268;28;20044;-68
2022/03/11 01:15:10;;;;;;;7.32;4.07;;;18.90;49.00;;;;;;5096391;28;20056;-68
2022/03/11 01:17:37;;;;;;;7.18;4.38;;;19.00;49.20;;;;;;5095837;28;20040;-68
2022/03/11 01:20:06;;;;;;;5.15;3.42;;;19.00;49.20;;;;;;5096270;28;20029;-67
2022/03/11 01:22:33;;;;;;;6.65;3.67;;;18.90;49.20;;;;;;5096324;28;20048;-68
2022/03/11 01:24:59;;;;;;;5.82;3.45;;;18.80;49.10;;;;;;5096132;28;20051;-68
2022/03/11 01:27:25;;;;;;;7.30;3.33;;;18.90;49.20;;;;;;5095963;28;20040;-68
2022/03/11 01:29:52;;;;;;;6.93;4.38;;;18.80;49.20;;;;;;5078786;28;20028;-68
2022/03/11 01:32:21;;;;;;;5.25;3.42;;;18.80;49.20;;;;;;5095905;28;20041;-68
2022/03/11 01:34:47;;;;;;;5.10;3.38;;;18.70;49.10;;;;;;5099284;28;20036;-67
2022/03/11 01:37:13;;;;;;;5.35;3.90;;;18.70;49.10;;;;;;5099566;28;20079;-68
2022/03/11 01:39:41;;;;;;;4.88;3.45;;;18.70;48.90;;;;;;5099868;28;20056;-68
2022/03/11 01:42:07;;;;;;;7.50;4.40;;;18.80;48.70;;;;;;5082388;28;20042;-68
2022/03/11 01:44:34;;;;;;;9.65;4.68;;;18.80;48.60;;;;;;5099514;28;20039;-69
2022/03/11 01:47:00;;;;;;;6.00;3.70;;;18.70;48.60;;;;;;5099480;28;20528;-68
2022/03/11 01:49:26;;;;;;;6.13;4.13;;;18.70;48.70;;;;;;5082351;28;20044;-68
2022/03/11 01:51:52;;;;;;;5.57;3.75;;;18.70;48.90;;;;;;5099468;28;20036;-68
2022/03/11 01:54:19;;;;;;;5.60;3.25;;;18.60;48.90;;;;;;5099234;28;20048;-68
2022/03/11 01:56:45;;;;;;;7.60;4.20;;;18.70;48.90;;;;;;5099372;28;20037;-68
2022/03/11 01:59:11;;;;;;;8.18;3.78;;;18.60;48.80;;;;;;5099288;28;20064;-68
2022/03/11 02:01:38;;;;;;;6.07;3.90;;;18.60;49.00;;;;;;5099226;28;20052;-68
2022/03/11 02:04:04;;;;;;;7.78;4.05;;;18.60;48.90;;;;;;5099304;28;20048;-68
2022/03/11 02:06:31;;;;;;;7.72;3.80;;;18.60;49.00;;;;;;5099009;28;20056;-68
2022/03/11 02:08:58;;;;;;;6.05;3.70;;;18.50;48.60;;;;;;5099337;28;20085;-68
2022/03/11 02:11:25;;;;;;;7.05;3.83;;;18.60;48.30;;;;;;5099363;28;20044;-67
2022/03/11 02:13:57;;;;;;;5.22;3.35;;;18.60;48.20;;;;;;5082177;28;20098;-68
2022/03/11 02:16:26;;;;;;;4.35;3.08;;;18.70;48.20;;;;;;5099001;28;20044;-68
2022/03/11 02:18:52;;;;;;;5.18;3.60;;;18.60;48.00;;;;;;5098873;28;20044;-68
2022/03/11 02:21:20;;;;;;;7.50;3.75;;;18.60;47.80;;;;;;5099023;28;20039;-68
2022/03/11 02:23:47;;;;;;;5.90;4.03;;;18.70;47.70;;;;;;5099026;28;20040;-68
2022/03/11 02:26:15;;;;;;;4.13;3.03;;;18.70;47.70;;;;;;5098980;28;20044;-68
2022/03/11 02:28:42;;;;;;;5.40;3.25;;;18.70;47.60;;;;;;5098821;28;20041;-68
2022/03/11 02:31:09;;;;;;;5.80;3.88;;;18.80;47.40;;;;;;5098921;28;20054;-68
2022/03/11 02:33:35;;;;;;;5.80;3.47;;;18.80;47.40;;;;;;5098693;28;20044;-68
2022/03/11 02:36:01;;;;;;;5.95;3.83;;;18.80;47.40;;;;;;5098975;28;20036;-68
2022/03/11 02:38:27;;;;;;;5.13;3.20;;;18.70;47.30;;;;;;5098039;28;20028;-68
2022/03/11 02:40:55;;;;;;;4.63;3.35;;;18.80;47.40;;;;;;5098543;28;20044;-68
2022/03/11 02:43:21;;;;;;;6.53;3.60;;;18.70;47.40;;;;;;5098718;28;20047;-68
2022/03/11 02:45:47;;;;;;;5.53;3.55;;;18.80;47.30;;;;;;5098393;28;20095;-68
2022/03/11 02:48:13;;;;;;;4.40;3.10;;;18.70;47.40;;;;;;5098261;28;20111;-68
2022/03/11 02:50:40;;;;;;;4.88;3.33;;;18.60;47.50;;;;;;5098520;28;20047;-68
2022/03/11 02:53:06;;;;;;;6.43;3.95;;;18.70;47.60;;;;;;5098357;28;20040;-68
2022/03/11 02:55:32;;;;;;;5.45;3.70;;;18.70;47.70;;;;;;5098098;28;20054;-68
2022/03/11 02:57:59;;;;;;;6.47;3.20;;;18.60;47.70;;;;;;5098374;28;20028;-68
2022/03/11 03:00:26;;;;;;;7.72;3.10;;;18.60;48.00;;;;;;5098142;28;20058;-68
2022/03/11 03:02:52;;;;;;;4.40;3.13;;;18.60;47.80;;;;;;5097255;28;20112;-68
2022/03/11 03:05:18;;;;;;;6.32;3.15;;;18.60;47.80;;;;;;5098196;28;20048;-68
2022/03/11 03:07:44;;;;;;;6.47;3.17;;;18.60;47.90;;;;;;5097557;28;20056;-69
2022/03/11 03:10:11;;;;;;;3.88;3.00;;;18.60;47.60;;;;;;5097983;28;20043;-68
2022/03/11 03:12:40;;;;;;;5.72;3.42;;;18.60;47.40;;;;;;5098085;28;20042;-68
2022/03/11 03:15:08;;;;;;;3.65;3.05;;;18.60;47.40;;;;;;5098044;28;20045;-68
2022/03/11 03:17:35;;;;;;;5.60;3.70;;;18.60;47.20;;;;;;5097875;28;20100;-68
2022/03/11 03:20:03;;;;;;;6.10;3.10;;;18.60;47.20;;;;;;5097981;28;20028;-68
2022/03/11 03:22:29;;;;;;;7.18;3.55;;;18.70;47.50;;;;;;5097925;28;20044;-69
2022/03/11 03:24:55;;;;;;;12.15;6.07;;;18.50;47.50;;;;;;5097848;28;20055;-68
2022/03/11 03:27:21;;;;;;;10.50;6.43;;;18.50;47.70;;;;;;5097753;28;20040;-68
2022/03/11 03:29:48;;;;;;;8.15;4.10;;;18.40;47.60;;;;;;5097501;28;20072;-69
2022/03/11 03:32:14;;;;;;;4.75;3.80;;;18.40;47.70;;;;;;5097606;28;20049;-68
2022/03/11 03:34:40;;;;;;;5.28;3.47;;;18.40;47.90;;;;;;5097746;28;20041;-68
2022/03/11 03:37:11;;;;;;;4.72;3.03;;;18.40;47.70;;;;;;5097302;28;20052;-68
2022/03/11 03:39:39;;;;;;;4.43;3.00;;;18.40;47.80;;;;;;5097461;28;20058;-68
2022/03/11 03:42:06;;;;;;;6.00;3.85;;;18.40;47.50;;;;;;5097304;28;20040;-67
2022/03/11 03:44:32;;;;;;;5.97;3.15;;;18.40;47.50;;;;;;5096766;28;20025;-68
2022/03/11 03:46:59;;;;;;;5.55;3.35;;;18.30;47.40;;;;;;5097360;28;20063;-68
2022/03/11 03:49:25;;;;;;;5.35;3.47;;;18.30;47.20;;;;;;5097481;28;20060;-68
2022/03/11 03:51:52;;;;;;;5.55;3.17;;;18.40;47.20;;;;;;5097180;28;20035;-68
2022/03/11 03:54:18;;;;;;;6.22;3.25;;;18.30;47.10;;;;;;5097252;28;20048;-68
2022/03/11 03:56:46;;;;;;;4.53;3.15;;;18.40;47.10;;;;;;5096605;28;20040;-67
2022/03/11 03:59:13;;;;;;;6.10;3.40;;;18.40;47.20;;;;;;5097148;28;20048;-68
2022/03/11 04:01:43;;;;;;;5.65;3.08;;;18.30;47.40;;;;;;5096685;28;20103;-68
2022/03/11 04:04:11;;;;;;;5.63;3.03;;;18.30;47.40;;;;;;5096901;28;20040;-68
2022/03/11 04:06:39;;;;;;;8.50;3.47;;;18.30;47.60;;;;;;5096623;28;20047;-68
2022/03/11 04:09:07;;;;;;;6.57;3.78;;;18.30;47.60;;;;;;5096828;28;20028;-68
2022/03/11 04:11:34;;;;;;;5.00;2.83;;;18.20;47.40;;;;;;5096574;28;20062;-68
2022/03/11 04:14:01;;;;;;;6.20;3.05;;;18.20;47.50;;;;;;5096728;28;20063;-68
2022/03/11 04:16:27;;;;;;;3.28;2.70;;;18.20;47.30;;;;;;5096791;28;20036;-68
2022/03/11 04:18:54;;;;;;;6.38;3.92;;;18.30;47.50;;;;;;5096860;28;20044;-68
2022/03/11 04:21:21;;;;;;;4.50;3.08;;;18.20;47.10;;;;;;5096898;28;20043;-68
2022/03/11 04:23:49;;;;;;;4.05;3.40;;;18.30;47.10;;;;;;5096719;28;20040;-67
2022/03/11 04:26:16;;;;;;;6.07;2.90;;;18.30;47.00;;;;;;5095711;28;20047;-68
2022/03/11 04:28:42;;;;;;;6.00;3.15;;;18.20;46.70;;;;;;5096816;28;20044;-68
2022/03/11 04:31:11;;;;;;;4.03;3.10;;;18.30;46.70;;;;;;5096563;28;20043;-68
2022/03/11 04:33:39;;;;;;;5.15;3.25;;;18.30;46.70;;;;;;5096583;28;20048;-68
2022/03/11 04:36:06;;;;;;;6.68;3.25;;;18.40;46.60;;;;;;5096288;28;20040;-68
2022/03/11 04:38:33;;;;;;;5.53;3.65;;;18.50;46.60;;;;;;5096604;28;20025;-68
2022/03/11 04:41:01;;;;;;;4.70;3.10;;;18.50;46.40;;;;;;5096386;28;20040;-68
2022/03/11 04:43:28;;;;;;;3.45;2.78;;;18.60;46.40;;;;;;5079155;28;20083;-68
2022/03/11 04:45:54;;;;;;;5.43;3.35;;;18.60;46.40;;;;;;5095989;28;20040;-68
2022/03/11 04:48:23;;;;;;;6.18;3.63;;;18.50;46.40;;;;;;5095654;28;20063;-68
2022/03/11 04:50:50;;;;;;;4.80;2.90;;;18.50;46.50;;;;;;5096433;28;20770;-68
2022/03/11 04:53:16;;;;;;;6.95;3.75;;;18.60;47.00;;;;;;5096242;28;20068;-68
2022/03/11 04:55:42;;;;;;;5.10;2.65;;;18.60;46.70;;;;;;5096231;28;20047;-68
2022/03/11 04:58:08;;;;;;;4.35;2.53;;;18.80;46.70;;;;;;5096321;28;20071;-68
2022/03/11 05:00:34;;;;;;;8.88;2.80;;;19.00;46.40;;;;;;5096078;28;20390;-69
2022/03/11 05:03:01;;;;;;;3.80;2.65;;;19.10;45.90;;;;;;5095645;28;20044;-68
2022/03/11 05:05:27;;;;;;;3.22;2.00;;;19.30;46.30;;;;;;5094963;28;20037;-68
2022/03/11 05:07:54;;;;;;;5.07;2.65;;;19.40;46.30;;;;;;5094964;28;20051;-68
2022/03/11 05:10:21;;;;;;;4.22;2.35;;;19.20;46.00;;;;;;5099030;28;20115;-68
2022/03/11 05:12:48;;;;;;;4.50;3.10;;;19.30;49.60;;;;;;5099906;28;20056;-69
2022/03/11 05:15:14;;;;;;;6.60;3.15;;;19.80;48.80;;;;;;5099675;28;20048;-68
2022/03/11 05:17:40;;;;;;;7.88;2.90;;;20.30;50.30;;;;;;5099536;28;20047;-69
2022/03/11 05:20:07;;;;;;;5.18;3.33;;;20.50;50.50;;;;;;5099659;28;20052;-67
2022/03/11 05:22:33;;;;;;;4.90;3.63;;;20.40;42.20;;;;;;5099171;28;20051;-69
2022/03/11 05:25:00;;;;;;;5.63;3.60;;;20.20;41.50;;;;;;5098735;28;20032;-68
2022/03/11 05:27:26;;;;;;;5.45;4.10;;;20.00;41.20;;;;;;5099229;28;20040;-69
2022/03/11 05:29:53;;;;;;;7.75;3.97;;;19.80;41.90;;;;;;5099172;28;20104;-69
2022/03/11 05:32:20;;;;;;;10.50;4.45;;;19.70;42.70;;;;;;5098293;28;20048;-68
2022/03/11 05:34:47;;;;;;;8.70;4.15;;;19.60;43.60;;;;;;5099111;28;20040;-68
2022/03/11 05:37:13;;;;;;;7.05;4.22;;;19.50;44.60;;;;;;5099052;28;20040;-68
2022/03/11 05:39:39;;;;;;;7.53;3.65;;;19.30;45.00;;;;;;5099255;28;20071;-68
2022/03/11 05:42:07;;;;;;;5.70;4.15;;;19.30;45.60;;;;;;5099068;28;20032;-68
2022/03/11 05:44:34;;;;;;;7.53;4.25;;;19.20;45.70;;;;;;5098910;28;20047;-70
2022/03/11 05:47:00;;;;;;;5.88;3.80;;;19.10;46.30;;;;;;5087122;28;20029;-69
2022/03/11 05:49:26;;;;;;;6.88;4.13;;;19.20;46.90;;;;;;5099018;28;20101;-67
2022/03/11 05:51:53;;;;;;;6.22;3.28;;;19.20;44.60;;;;;;5098835;28;20040;-68
2022/03/11 05:54:19;;;;;;;4.90;2.10;;;19.00;42.70;;;;;;5098752;28;20056;-68
2022/03/11 05:56:50;;;;;;;3.30;0.73;;;19.30;49.50;;;;;;5098600;28;20036;-68
2022/03/11 05:59:16;;;;;;;5.97;2.95;;;19.50;50.20;;;;;;5098794;28;20036;-68
2022/03/11 06:01:45;;;;;;;7.72;2.50;;;19.70;49.00;;;;;;5077600;28;20052;-68
2022/03/11 06:04:11;;;;;;;6.97;3.15;;;19.80;38.70;;;;;;5078479;28;20071;-68
2022/03/11 06:06:37;;;;;;;7.72;2.83;;;19.80;35.40;;;;;;5077651;28;20077;-68
2022/03/11 06:09:03;;;;;;;4.57;2.97;;;19.70;35.20;;;;;;5077101;28;20041;-68
2022/03/11 06:11:30;;;;;;;4.80;3.35;;;19.70;35.50;;;;;;5077309;28;20040;-68
2022/03/11 06:13:56;;;;;;;4.00;2.80;;;19.80;34.80;;;;;;5078423;28;20041;-68
2022/03/11 06:16:22;;;;;;;5.45;3.17;;;19.80;37.20;;;;;;5078211;28;20079;-67
2022/03/11 06:18:48;;;;;;;6.15;3.55;;;19.90;35.70;;;;;;5076699;28;20041;-68
2022/03/11 06:21:15;;;;;;;6.53;3.35;;;19.80;35.80;;;;;;5077130;28;20029;-68
2022/03/11 06:23:41;;;;;;;5.78;3.47;;;19.70;34.80;;;;;;5077818;28;20060;-69
2022/03/11 06:26:07;;;;;;;5.65;3.58;;;19.70;34.70;;;;;;5076580;28;20211;-68
2022/03/11 06:28:33;;;;;;;6.47;3.50;;;19.70;37.60;;;;;;5077630;28;20095;-68
2022/03/11 06:31:00;;;;;;;4.38;3.03;;;19.80;37.80;;;;;;5077827;28;20048;-67
2022/03/11 06:33:26;;;;;;;6.32;3.63;;;19.90;40.50;;;;;;5077607;28;20044;-67
2022/03/11 06:35:52;;;;;;;0.52;0.52;;;20.00;38.80;;;;;;5077836;28;20144;-69
2022/03/11 06:38:18;;;;;;;0.80;0.57;;;20.00;49.90;;;;;;5077370;28;20051;-71
2022/03/11 06:40:50;;;;;;;1.08;1.08;;;20.20;52.70;;;;;;5077162;28;20045;-70
2022/03/11 06:43:19;;;;;;;0.63;0.63;;;20.50;49.30;;;;;;5077039;28;20070;-69
2022/03/11 06:45:45;;;;;;;0.63;0.63;;;20.60;46.80;;;;;;5076812;28;20044;-68
2022/03/11 06:48:18;;;;;;;4.30;2.08;;;20.80;44.10;;;;;;5076629;28;20051;-70
2022/03/11 06:50:45;;;;;;;1.10;1.02;;;20.70;40.20;;;;;;5076934;28;20048;-68
2022/03/11 06:53:13;;;;;;;2.75;1.90;;;20.80;38.00;;;;;;5077706;28;20044;-70
2022/03/11 06:55:39;;;;;;;2.38;1.63;;;20.90;36.60;;;;;;5077829;28;20067;-69
2022/03/11 06:58:05;;;;;;;8.52;4.90;;;20.80;37.10;;;;;;5077559;28;20037;-69
2022/03/11 07:00:32;;;;;;;6.95;3.58;;;20.70;34.90;;;;;;5077454;28;20032;-68
2022/03/11 07:02:58;;;;;;;5.15;3.05;;;20.80;34.10;;;;;;5040650;28;20049;-68
2022/03/11 07:05:25;;;;;;;7.97;5.03;;;20.70;33.30;;;;;;5056842;28;20060;-68
2022/03/11 07:07:51;;;;;;;3.65;2.90;;;20.60;33.40;;;;;;5056362;28;20037;-67
2022/03/11 07:10:19;;;;;;;4.95;2.92;;;20.50;38.20;;;;;;5056677;28;20041;-68
2022/03/11 07:12:45;;;;;;;6.15;2.88;;;20.30;37.90;;;;;;5057297;28;20041;-67
2022/03/11 07:15:11;;;;;;;3.67;2.10;;;20.30;37.00;;;;;;5057170;28;20038;-68
2022/03/11 07:17:38;;;;;;;4.95;2.97;;;20.20;37.20;;;;;;5057210;28;20075;-68
2022/03/11 07:20:06;;;;;;;4.70;2.40;;;20.30;37.60;;;;;;5057077;28;20041;-67
2022/03/11 07:22:32;;;;;;;5.00;2.75;;;20.30;33.40;;;;;;5056991;28;20067;-67
2022/03/11 07:24:59;;;;;;;6.00;2.78;;;20.10;38.40;;;;;;5056964;28;20041;-67
2022/03/11 07:27:25;;;;;;;5.18;3.00;;;20.20;39.50;;;;;;5056636;28;20041;-68
2022/03/11 07:29:52;;;;;;;3.55;2.78;;;20.20;39.20;;;;;;5055889;28;20037;-68
2022/03/11 07:32:18;;;;;;;4.53;3.10;;;20.20;38.30;;;;;;5055445;28;20040;-67
2022/03/11 07:34:44;;;;;;;5.70;3.65;;;20.20;41.30;;;;;;5056599;28;20044;-70
2022/03/11 07:37:12;;;;;;;6.30;3.55;;;20.20;42.50;;;;;;5039067;28;20041;-69
2022/03/11 07:39:41;;;;;;;6.45;3.70;;;20.00;42.60;;;;;;5056405;28;20060;-68
2022/03/11 07:42:08;;;;;;;11.77;4.68;;;20.00;44.70;;;;;;5056469;28;20042;-68
2022/03/11 07:44:34;;;;;;;8.40;3.90;;;20.10;43.80;;;;;;5089536;28;20064;-68
2022/03/11 07:47:01;;;;;;;26.27;8.93;;;20.00;45.70;;;;;;5056700;28;20117;-68
2022/03/11 07:49:30;;;;;;;5.78;2.80;;;19.90;44.80;;;;;;5056047;28;20081;-67
2022/03/11 07:51:57;;;;;;;13.75;6.13;;;19.80;46.10;;;;;;5056182;28;20037;-68
2022/03/11 07:54:23;;;;;;;7.10;3.10;;;19.80;43.90;;;;;;5055972;28;20055;-67
2022/03/11 07:56:50;;;;;;;6.57;2.13;;;19.60;44.30;;;;;;5055990;28;20037;-68
2022/03/11 07:59:16;;;;;;;12.60;5.22;;;19.50;47.60;;;;;;5055604;28;20100;-68
2022/03/11 08:01:42;;;;;;;7.57;3.17;;;19.60;48.80;;;;;;5074696;28;20252;-69
2022/03/11 08:04:13;;;;;;;41.63;13.50;;;19.70;49.60;;;;;;5095983;28;20040;-68
2022/03/11 08:06:40;;;;;;;12.77;4.18;;;19.80;49.60;;;;;;5095950;28;20058;-68
2022/03/11 08:09:07;;;;;;;3.22;2.25;;;19.70;53.90;;;;;;5095942;28;20033;-69
2022/03/11 08:11:33;;;;;;;3.22;2.30;;;19.60;49.90;;;;;;5095771;28;20046;-67
2022/03/11 08:13:59;;;;;;;4.10;2.63;;;19.70;50.40;;;;;;5095904;28;20108;-67
2022/03/11 08:16:26;;;;;;;6.22;2.85;;;19.60;51.20;;;;;;5096306;28;20056;-67
2022/03/11 08:18:52;;;;;;;5.13;3.17;;;19.70;51.80;;;;;;5096090;28;20074;-67
2022/03/11 08:21:20;;;;;;;4.78;2.53;;;19.70;49.90;;;;;;5095899;28;20036;-67
2022/03/11 08:23:46;;;;;;;2.05;1.63;;;19.80;52.00;;;;;;5095495;28;20085;-68
2022/03/11 08:26:12;;;;;;;3.95;2.53;;;19.80;55.40;;;;;;5095784;28;20040;-67
2022/03/11 08:28:38;;;;;;;5.65;3.40;;;20.30;59.20;;;;;;5095963;28;20051;-67
2022/03/11 08:31:05;;;;;;;7.35;2.90;;;20.80;59.10;;;;;;5095422;28;20055;-68
2022/03/11 08:33:34;;;;;;;4.10;3.03;;;21.20;58.40;;;;;;5095548;28;20044;-67
2022/03/11 08:36:00;;;;;;;2.50;2.00;;;21.60;61.40;;;;;;5095941;28;20044;-67
2022/03/11 08:38:26;;;;;;;3.35;2.35;;;21.50;51.90;;;;;;5095880;28;20055;-68
2022/03/11 08:40:52;;;;;;;3.33;2.45;;;21.30;52.40;;;;;;5095821;28;20039;-67
2022/03/11 08:43:19;;;;;;;4.63;2.83;;;21.10;52.10;;;;;;5095757;28;20088;-67
2022/03/11 08:45:45;;;;;;;5.25;2.67;;;20.90;51.70;;;;;;5095913;28;20044;-67
2022/03/11 08:48:11;;;;;;;3.45;1.67;;;20.80;52.20;;;;;;5095832;28;20052;-68
2022/03/11 08:50:37;;;;;;;5.82;2.45;;;20.80;51.60;;;;;;5095775;28;20040;-68
2022/03/11 08:53:03;;;;;;;3.30;1.58;;;20.70;51.80;;;;;;5095768;28;20070;-67
2022/03/11 08:55:29;;;;;;;2.47;1.90;;;20.80;50.60;;;;;;5095849;28;20104;-67
2022/03/11 08:57:55;;;;;;;6.15;2.42;;;20.70;53.10;;;;;;5096062;28;20028;-67
2022/03/11 09:00:25;;;;;;;6.80;3.17;;;20.60;50.60;;;;;;5078174;28;20029;-67
2022/03/11 09:02:51;;;;;;;3.63;2.15;;;20.60;53.30;;;;;;5095795;28;20048;-67
2022/03/11 09:05:20;;;;;;;5.78;2.42;;;20.60;54.60;;;;;;5095775;28;20044;-67
2022/03/11 09:07:48;;;;;;;3.47;2.20;;;20.70;39.30;;;;;;5095349;28;20032;-67
2022/03/11 09:10:18;;;;;;;4.70;1.98;;;21.00;35.40;;;;;;5078080;28;20045;-67
2022/03/11 09:12:44;;;;;;;7.55;3.10;;;21.00;34.80;;;;;;5095429;28;20036;-69
2022/03/11 09:15:11;;;;;;;4.30;2.45;;;21.20;30.30;;;;;;5095675;28;20104;-68
2022/03/11 09:17:37;;;;;;;5.97;2.25;;;21.40;29.20;;;;;;5095775;28;20043;-68
2022/03/11 09:20:06;;;;;;;13.50;4.60;;;21.40;32.70;;;;;;5095567;28;20056;-68
2022/03/11 09:22:34;;;;;;;3.72;1.95;;;21.40;32.40;;;;;;5095656;28;20037;-69
2022/03/11 09:25:03;;;;;;;3.05;1.77;;;21.50;30.50;;;;;;5095649;28;20040;-69
2022/03/11 09:27:30;;;;;;;4.60;2.20;;;21.70;33.50;;;;;;5095334;28;20083;-69
2022/03/11 09:29:57;;;;;;;6.13;2.60;;;21.70;37.00;;;;;;5095431;28;20041;-69
2022/03/11 09:32:25;;;;;;;6.30;3.22;;;21.60;41.40;;;;;;5095597;28;20048;-68
2022/03/11 09:34:52;;;;;;;5.60;2.58;;;21.40;45.50;;;;;;5095245;28;20100;-69
2022/03/11 09:37:18;;;;;;;7.68;2.42;;;21.30;44.80;;;;;;5095491;28;20059;-69
2022/03/11 09:39:45;;;;;;;2.08;1.55;;;21.10;43.30;;;;;;5095381;28;20044;-69
2022/03/11 09:42:12;;;;;;;2.67;2.13;;;20.90;42.50;;;;;;5095266;28;20040;-69
2022/03/11 09:44:46;;;;;;;3.67;2.10;;;20.90;44.60;;;;;;5095559;28;20127;-69
2022/03/11 09:47:15;;;;;;;4.57;1.70;;;20.80;50.00;;;;;;5095507;28;20037;-70
2022/03/11 09:49:41;;;;;;;4.50;3.08;;;20.70;47.30;;;;;;5095117;28;20047;-69
2022/03/11 09:52:09;;;;;;;5.22;2.22;;;20.70;47.90;;;;;;5093960;28;20040;-69
2022/03/11 09:54:35;;;;;;;3.67;2.40;;;20.80;48.40;;;;;;5096408;28;20044;-68
2022/03/11 09:57:01;;;;;;;1673.68;511.25;;;21.20;45.30;;;;;;5098851;28;20040;-68
2022/03/11 09:59:27;;;;;;;26.23;15.52;;;21.80;43.60;;;;;;5098025;28;20036;-68
2022/03/11 10:01:54;;;;;;;40.15;17.63;;;22.00;32.70;;;;;;5098594;28;20055;-69
2022/03/11 10:04:21;;;;;;;46.70;16.88;;;22.10;29.20;;;;;;5098833;28;20108;-70
2022/03/11 10:06:48;;;;;;;17.70;8.23;;;22.10;27.00;;;;;;5098521;28;20045;-69
2022/03/11 10:09:20;;;;;;;18.35;9.52;;;22.10;28.30;;;;;;5098697;28;20036;-69
2022/03/11 10:11:49;;;;;;;12.93;5.68;;;22.20;27.20;;;;;;5098295;28;20055;-69
2022/03/11 10:14:16;;;;;;;9.15;4.72;;;22.20;28.60;;;;;;5098775;28;20040;-68
2022/03/11 10:16:46;;;;;;;12.40;5.43;;;22.30;29.60;;;;;;5081560;28;20046;-70
2022/03/11 10:19:13;;;;;;;7.85;4.25;;;22.40;28.80;;;;;;5098558;28;20067;-68
2022/03/11 10:21:43;;;;;;;5.70;3.25;;;22.40;31.90;;;;;;5098393;28;20043;-69
2022/03/11 10:24:13;;;;;;;3.90;3.08;;;22.60;32.40;;;;;;5098034;28;20056;-69
2022/03/11 10:26:42;;;;;;;6.43;3.13;;;22.80;36.80;;;;;;5098490;28;20090;-69
2022/03/11 10:29:19;;;;;;;7.68;4.28;;;22.70;38.20;;;;;;5098436;28;20108;-69
2022/03/11 10:31:49;;;;;;;7.55;4.03;;;22.60;48.20;;;;;;5097946;28;20071;-69
2022/03/11 10:34:20;;;;;;;10.50;3.90;;;22.70;46.00;;;;;;5098248;28;20036;-69
2022/03/11 10:36:47;;;;;;;6.95;3.47;;;23.10;48.30;;;;;;5097898;28;20044;-69
2022/03/11 10:39:38;;;;;;;10.00;4.40;;;23.30;31.00;;;;;;5097878;28;20037;-68
2022/03/11 10:42:27;;;;;;;9.40;3.03;;;23.20;30.70;;;;;;5097988;28;20512;-68
2022/03/11 10:45:00;;;;;;;6.40;3.38;;;23.10;33.30;;;;;;5097864;28;20051;-67
2022/03/11 10:47:29;;;;;;;6.05;2.65;;;23.20;42.20;;;;;;5098108;28;20115;-68
2022/03/11 10:49:57;;;;;;;5.10;3.50;;;23.20;30.70;;;;;;5098055;28;20050;-68
2022/03/11 10:52:46;;;;;;;5.10;2.78;;;23.30;36.00;;;;;;5097636;28;20040;-68
2022/03/11 10:55:26;;;;;;;5.18;2.70;;;23.10;38.90;;;;;;5097996;28;20058;-68
2022/03/11 10:57:56;;;;;;;2.78;2.00;;;23.30;33.90;;;;;;5097751;28;20039;-68
2022/03/11 11:00:24;;;;;;;8.13;3.40;;;23.30;33.70;;;;;;5097517;28;20036;-69
2022/03/11 11:02:52;;;;;;;3.10;2.63;;;23.10;31.60;;;;;;5097694;28;20052;-69
2022/03/11 11:05:19;;;;;;;6.60;3.40;;;23.20;39.00;;;;;;5097160;28;20051;-68
2022/03/11 11:07:46;;;;;;;7.28;3.97;;;23.40;45.60;;;;;;5096911;28;20051;-68
2022/03/11 11:10:15;;;;;;;25.05;8.80;;;23.10;42.70;;;;;;5097612;28;20035;-68
2022/03/11 11:12:41;;;;;;;5.32;4.00;;;22.90;43.90;;;;;;5097388;28;20040;-69
2022/03/11 11:15:09;;;;;;;4.75;2.92;;;22.80;46.40;;;;;;5097261;28;20040;-68
2022/03/11 11:17:39;;;;;;;2.35;2.00;;;22.60;46.70;;;;;;5096723;28;20669;-68
2022/03/11 11:20:21;;;;;;;4.25;1.30;;;22.50;48.60;;;;;;5096483;28;20021;-68
2022/03/11 11:22:52;;;;;;;3.45;1.90;;;22.80;51.70;;;;;;5097054;28;20060;-69
2022/03/11 11:25:22;;;;;;;3.47;2.50;;;22.90;48.50;;;;;;5097140;28;20043;-69
2022/03/11 11:27:51;;;;;;;3.38;2.28;;;22.70;46.20;;;;;;5097050;28;20056;-70
2022/03/11 11:30:23;;;;;;;4.07;2.17;;;22.50;45.40;;;;;;5097037;28;20040;-71
2022/03/11 11:32:52;;;;;;;3.10;1.95;;;22.30;47.20;;;;;;5096557;28;20108;-69
2022/03/11 11:35:32;;;;;;;2.30;1.30;;;22.20;47.70;;;;;;5096877;28;20066;-69
2022/03/11 11:38:04;;;;;;;3.25;1.60;;;22.10;50.60;;;;;;5097158;28;20040;-69
2022/03/11 11:40:32;;;;;;;5.57;2.15;;;22.10;51.10;;;;;;5096839;28;20024;-69
2022/03/11 11:43:13;;;;;;;2.85;2.00;;;22.00;50.80;;;;;;5096845;28;20048;-68
2022/03/11 11:46:08;;;;;;;2.50;1.90;;;22.10;51.50;;;;;;5096901;28;20040;-69
2022/03/11 11:48:45;;;;;;;4.40;1.60;;;22.00;51.40;;;;;;5091246;28;20074;-69
2022/03/11 11:51:33;;;;;;;4.07;1.95;;;21.90;52.00;;;;;;5096487;28;20064;-68
2022/03/11 11:54:08;;;;;;;1.98;1.13;;;21.80;50.20;;;;;;5096658;28;20050;-69
2022/03/11 11:57:02;;;;;;;2.10;1.50;;;21.60;51.20;;;;;;5096327;28;20853;-69
2022/03/11 11:59:30;;;;;;;4.13;2.63;;;21.60;50.70;;;;;;5096439;28;20105;-70
2022/03/11 12:01:59;;;;;;;1.70;1.60;;;21.60;52.80;;;;;;5095806;28;20059;-69
2022/03/11 12:04:39;;;;;;;2.97;1.83;;;21.50;51.50;;;;;;5096387;28;20044;-68
2022/03/11 12:07:09;;;;;;;3.40;1.83;;;21.40;56.10;;;;;;5096266;28;20040;-69
2022/03/11 12:09:50;;;;;;;2.00;1.67;;;21.50;56.20;;;;;;5096166;28;20044;-68
2022/03/11 12:12:20;;;;;;;7.13;1.27;;;21.40;53.60;;;;;;5096191;28;20119;-70
2022/03/11 12:15:01;;;;;;;1.00;0.90;;;21.30;51.90;;;;;;5096048;28;20059;-69
2022/03/11 12:17:43;;;;;;;1.85;1.33;;;21.30;54.20;;;;;;5095414;28;20040;-69
2022/03/11 12:20:33;;;;;;;2.70;1.55;;;21.50;52.60;;;;;;5082681;28;20032;-68
2022/03/11 12:23:11;;;;;;;1.38;1.23;;;21.50;50.60;;;;;;5095688;28;20040;-68
2022/03/11 12:25:41;;;;;;;2.22;1.80;;;21.50;52.30;;;;;;5096133;28;20055;-68
2022/03/11 12:28:08;;;;;;;2.80;1.25;;;21.60;51.70;;;;;;5096126;28;20044;-68
2022/03/11 12:30:39;;;;;;;3.10;1.67;;;21.60;53.40;;;;;;5095732;28;20044;-68
2022/03/11 12:33:08;;;;;;;2.05;1.40;;;21.60;52.10;;;;;;5095877;28;20067;-71
2022/03/11 12:35:35;;;;;;;1.85;1.15;;;21.80;53.70;;;;;;5095955;28;20037;-70
2022/03/11 12:38:02;;;;;;;4.50;1.95;;;21.70;53.90;;;;;;5078434;28;20169;-69
2022/03/11 12:40:31;;;;;;;2.13;1.55;;;21.90;53.10;;;;;;5096015;28;20036;-69
2022/03/11 12:42:59;;;;;;;1.58;1.20;;;22.10;39.60;;;;;;5095025;28;20041;-69
2022/03/11 12:45:30;;;;;;;2.25;2.05;;;22.30;42.30;;;;;;5095799;28;20048;-71
2022/03/11 12:47:56;;;;;;;6.95;1.70;;;22.40;48.00;;;;;;5096191;28;20067;-70
2022/03/11 12:50:23;;;;;;;2.90;1.90;;;22.40;50.40;;;;;;5095946;28;20082;-70